Terminal Aerodrome Forecast
Issued by NWS Quad Cities IA IL

Home | Current Version | Previous Version | Text Only | Print | Product List | Glossary On
Versions: 1 2 3 4 5 6 7 8 9 10 11 12 13 14 15 16 17 18 19 20 21 22 23 24 25 26 27 28
000
FTUS43 KDVN 270221 AAA
TAFMLI
TAF AMD
KMLI 270221Z 2702/2724 22008KT P6SM OVC250
     FM270330 27012G22KT P6SM SCT050 OVC200
     FM270700 17006KT 6SM -RA BR OVC050 PROB30 2711/2714 4SM -TSRA
      BR OVC035CB
     FM271400 15005KT 5SM BR VCTS BKN060CB
     FM271600 19010G20KT P6SM BKN050=

USA.gov is the U.S. government's official web portal to all federal, state and local government web resources and services.